sensor_id;sensor_type;location;lat;lon;timestamp;noise_LAeq;noise_LA_min;noise_LA_max;noise_LA01;noise_LA95
64545;Laerm;50936;51.660;5.616;2024-01-07T00:00:24;38.57;34.31;41.75;;
64545;Laerm;50936;51.660;5.616;2024-01-07T00:03:11;38.56;34.31;41.61;;
64545;Laerm;50936;51.660;5.616;2024-01-07T00:05:58;38.59;33.44;43.68;;
64545;Laerm;50936;51.660;5.616;2024-01-07T00:08:45;39.13;35.94;44.51;;
64545;Laerm;50936;51.660;5.616;2024-01-07T00:11:34;39.19;35.66;43.90;;
64545;Laerm;50936;51.660;5.616;2024-01-07T00:14:21;38.94;35.04;45.01;;
64545;Laerm;50936;51.660;5.616;2024-01-07T00:17:10;38.81;32.35;44.07;;
64545;Laerm;50936;51.660;5.616;2024-01-07T00:19:57;37.75;32.00;44.76;;
64545;Laerm;50936;51.660;5.616;2024-01-07T00:22:45;39.25;31.68;68.85;;
64545;Laerm;50936;51.660;5.616;2024-01-07T00:25:32;37.49;32.00;41.75;;
64545;Laerm;50936;51.660;5.616;2024-01-07T00:28:19;38.04;31.68;44.27;;
64545;Laerm;50936;51.660;5.616;2024-01-07T00:31:06;37.42;30.89;40.89;;
64545;Laerm;50936;51.660;5.616;2024-01-07T00:33:56;37.15;29.92;40.33;;
64545;Laerm;50936;51.660;5.616;2024-01-07T00:36:43;37.87;31.68;41.06;;
64545;Laerm;50936;51.660;5.616;2024-01-07T00:39:30;37.76;32.35;42.82;;
64545;Laerm;50936;51.660;5.616;2024-01-07T00:42:18;37.50;30.89;42.71;;
64545;Laerm;50936;51.660;5.616;2024-01-07T00:45:06;37.51;31.68;42.09;;
64545;Laerm;50936;51.660;5.616;2024-01-07T00:47:53;37.40;30.89;41.68;;
64545;Laerm;50936;51.660;5.616;2024-01-07T00:50:42;37.13;31.68;42.47;;
64545;Laerm;50936;51.660;5.616;2024-01-07T00:53:30;37.49;31.68;43.49;;
64545;Laerm;50936;51.660;5.616;2024-01-07T00:56:17;37.52;31.68;41.61;;
64545;Laerm;50936;51.660;5.616;2024-01-07T00:59:04;37.68;31.68;43.29;;
64545;Laerm;50936;51.660;5.616;2024-01-07T01:01:51;37.87;30.89;43.68;;
64545;Laerm;50936;51.660;5.616;2024-01-07T01:04:39;37.68;31.68;42.03;;
64545;Laerm;50936;51.660;5.616;2024-01-07T01:07:27;37.54;30.89;41.75;;
64545;Laerm;50936;51.660;5.616;2024-01-07T01:10:14;37.56;31.68;43.55;;
64545;Laerm;50936;51.660;5.616;2024-01-07T01:13:03;38.11;32.93;40.80;;
64545;Laerm;50936;51.660;5.616;2024-01-07T01:15:51;38.31;33.44;43.24;;
64545;Laerm;50936;51.660;5.616;2024-01-07T01:18:39;38.26;33.97;45.23;;
64545;Laerm;50936;51.660;5.616;2024-01-07T01:21:26;38.22;34.31;40.98;;
64545;Laerm;50936;51.660;5.616;2024-01-07T01:24:14;38.31;34.31;42.16;;
64545;Laerm;50936;51.660;5.616;2024-01-07T01:27:01;38.48;34.69;45.04;;
64545;Laerm;50936;51.660;5.616;2024-01-07T01:29:48;37.96;31.68;42.93;;
64545;Laerm;50936;51.660;5.616;2024-01-07T01:32:35;37.80;30.89;43.77;;
64545;Laerm;50936;51.660;5.616;2024-01-07T01:35:23;38.00;32.35;42.71;;
64545;Laerm;50936;51.660;5.616;2024-01-07T01:38:10;38.51;33.90;42.65;;
64545;Laerm;50936;51.660;5.616;2024-01-07T01:40:58;38.40;34.31;43.09;;
64545;Laerm;50936;51.660;5.616;2024-01-07T01:43:45;38.37;34.31;40.88;;
64545;Laerm;50936;51.660;5.616;2024-01-07T01:46:33;38.63;34.69;41.41;;
64545;Laerm;50936;51.660;5.616;2024-01-07T01:49:20;38.60;34.31;42.65;;
64545;Laerm;50936;51.660;5.616;2024-01-07T01:52:09;38.25;32.35;44.11;;
64545;Laerm;50936;51.660;5.616;2024-01-07T01:54:59;37.24;31.68;44.23;;
64545;Laerm;50936;51.660;5.616;2024-01-07T01:57:48;36.99;31.68;43.14;;
64545;Laerm;50936;51.660;5.616;2024-01-07T02:00:36;37.24;31.68;41.75;;
64545;Laerm;50936;51.660;5.616;2024-01-07T02:03:23;37.16;31.68;41.89;;
64545;Laerm;50936;51.660;5.616;2024-01-07T02:06:12;36.84;29.92;44.31;;
64545;Laerm;50936;51.660;5.616;2024-01-07T02:08:59;36.95;30.89;40.71;;
64545;Laerm;50936;51.660;5.616;2024-01-07T02:12:19;37.32;30.89;43.72;;
64545;Laerm;50936;51.660;5.616;2024-01-07T02:15:07;37.00;30.89;40.71;;
64545;Laerm;50936;51.660;5.616;2024-01-07T02:17:54;37.51;30.89;41.89;;
64545;Laerm;50936;51.660;5.616;2024-01-07T02:20:41;37.61;30.89;41.30;;
64545;Laerm;50936;51.660;5.616;2024-01-07T02:23:29;37.12;30.89;42.41;;
64545;Laerm;50936;51.660;5.616;2024-01-07T02:26:17;37.64;30.89;43.29;;
64545;Laerm;50936;51.660;5.616;2024-01-07T02:29:04;37.31;29.92;41.61;;
64545;Laerm;50936;51.660;5.616;2024-01-07T02:31:51;37.14;29.92;41.89;;
64545;Laerm;50936;51.660;5.616;2024-01-07T02:34:38;37.63;26.91;47.20;;
64545;Laerm;50936;51.660;5.616;2024-01-07T02:37:27;38.47;31.68;44.49;;
64545;Laerm;50936;51.660;5.616;2024-01-07T02:40:14;38.30;32.35;41.22;;
64545;Laerm;50936;51.660;5.616;2024-01-07T02:43:02;38.26;34.31;43.04;;
64545;Laerm;50936;51.660;5.616;2024-01-07T02:45:49;38.78;34.69;44.90;;
64545;Laerm;50936;51.660;5.616;2024-01-07T02:48:36;38.40;34.69;41.30;;
64545;Laerm;50936;51.660;5.616;2024-01-07T02:51:23;38.35;33.44;42.88;;
64545;Laerm;50936;51.660;5.616;2024-01-07T02:54:10;37.91;32.35;42.93;;
64545;Laerm;50936;51.660;5.616;2024-01-07T02:56:58;36.88;29.92;41.96;;
64545;Laerm;50936;51.660;5.616;2024-01-07T02:59:45;37.45;29.92;42.88;;
64545;Laerm;50936;51.660;5.616;2024-01-07T03:02:32;37.04;30.89;43.86;;
64545;Laerm;50936;51.660;5.616;2024-01-07T03:05:19;37.64;31.68;43.49;;
64545;Laerm;50936;51.660;5.616;2024-01-07T03:08:06;37.15;30.89;42.76;;
64545;Laerm;50936;51.660;5.616;2024-01-07T03:10:54;37.10;28.67;41.96;;
64545;Laerm;50936;51.660;5.616;2024-01-07T03:13:41;37.21;30.89;41.30;;
64545;Laerm;50936;51.660;5.616;2024-01-07T03:16:29;37.07;31.68;42.22;;
64545;Laerm;50936;51.660;5.616;2024-01-07T03:19:16;37.22;31.68;42.03;;
64545;Laerm;50936;51.660;5.616;2024-01-07T03:22:04;37.15;30.89;41.06;;
64545;Laerm;50936;51.660;5.616;2024-01-07T03:24:52;38.11;32.93;41.61;;
64545;Laerm;50936;51.660;5.616;2024-01-07T03:27:40;38.16;33.44;41.46;;
64545;Laerm;50936;51.660;5.616;2024-01-07T03:30:27;38.30;34.31;40.62;;
64545;Laerm;50936;51.660;5.616;2024-01-07T03:33:14;38.33;33.90;42.76;;
64545;Laerm;50936;51.660;5.616;2024-01-07T03:36:10;38.34;34.31;42.93;;
64545;Laerm;50936;51.660;5.616;2024-01-07T03:38:57;38.35;34.31;41.06;;
64545;Laerm;50936;51.660;5.616;2024-01-07T03:41:45;38.43;35.04;40.71;;
64545;Laerm;50936;51.660;5.616;2024-01-07T03:44:32;38.53;35.36;40.80;;
64545;Laerm;50936;51.660;5.616;2024-01-07T03:47:19;38.59;35.94;43.49;;
64545;Laerm;50936;51.660;5.616;2024-01-07T03:50:06;38.33;32.35;42.71;;
64545;Laerm;50936;51.660;5.616;2024-01-07T03:52:54;37.07;31.68;40.53;;
64545;Laerm;50936;51.660;5.616;2024-01-07T03:55:41;37.02;29.92;42.88;;
64545;Laerm;50936;51.660;5.616;2024-01-07T03:58:28;36.80;29.92;41.53;;
64545;Laerm;50936;51.660;5.616;2024-01-07T04:01:16;37.43;30.89;40.71;;
64545;Laerm;50936;51.660;5.616;2024-01-07T04:04:04;37.14;32.35;43.86;;
64545;Laerm;50936;51.660;5.616;2024-01-07T04:06:52;36.88;31.68;39.92;;
64545;Laerm;50936;51.660;5.616;2024-01-07T04:09:39;37.05;29.92;41.22;;
64545;Laerm;50936;51.660;5.616;2024-01-07T04:12:27;37.35;29.92;41.61;;
64545;Laerm;50936;51.660;5.616;2024-01-07T04:15:14;37.01;29.92;41.96;;
64545;Laerm;50936;51.660;5.616;2024-01-07T04:18:05;37.03;30.89;40.23;;
64545;Laerm;50936;51.660;5.616;2024-01-07T04:20:52;37.05;30.89;40.71;;
64545;Laerm;50936;51.660;5.616;2024-01-07T04:23:40;37.03;31.68;41.89;;
64545;Laerm;50936;51.660;5.616;2024-01-07T04:26:30;36.81;29.92;39.92;;
64545;Laerm;50936;51.660;5.616;2024-01-07T04:29:17;37.70;30.89;43.34;;
64545;Laerm;50936;51.660;5.616;2024-01-07T04:32:05;37.16;31.68;40.53;;
64545;Laerm;50936;51.660;5.616;2024-01-07T04:34:52;36.92;30.89;40.27;;
64545;Laerm;50936;51.660;5.616;2024-01-07T04:37:40;36.85;29.92;40.23;;
64545;Laerm;50936;51.660;5.616;2024-01-07T04:40:27;36.96;31.68;40.53;;
64545;Laerm;50936;51.660;5.616;2024-01-07T04:43:14;37.80;29.92;44.20;;
64545;Laerm;50936;51.660;5.616;2024-01-07T04:46:01;36.91;29.92;40.23;;
64545;Laerm;50936;51.660;5.616;2024-01-07T04:48:48;36.84;30.89;39.99;;
64545;Laerm;50936;51.660;5.616;2024-01-07T04:51:36;36.92;26.91;40.62;;
64545;Laerm;50936;51.660;5.616;2024-01-07T04:54:23;37.66;31.68;43.44;;
64545;Laerm;50936;51.660;5.616;2024-01-07T04:57:10;38.20;33.90;42.22;;
64545;Laerm;50936;51.660;5.616;2024-01-07T04:59:58;38.13;34.31;41.30;;
64545;Laerm;50936;51.660;5.616;2024-01-07T05:02:45;38.25;33.90;40.62;;
64545;Laerm;50936;51.660;5.616;2024-01-07T05:05:32;38.35;34.31;52.62;;
64545;Laerm;50936;51.660;5.616;2024-01-07T05:08:19;38.30;34.31;40.71;;
64545;Laerm;50936;51.660;5.616;2024-01-07T05:11:11;37.98;32.93;42.35;;
64545;Laerm;50936;51.660;5.616;2024-01-07T05:13:58;37.17;31.68;40.89;;
64545;Laerm;50936;51.660;5.616;2024-01-07T05:16:46;37.71;31.68;40.71;;
64545;Laerm;50936;51.660;5.616;2024-01-07T05:19:33;38.17;33.55;40.71;;
64545;Laerm;50936;51.660;5.616;2024-01-07T05:22:21;38.58;32.35;60.45;;
64545;Laerm;50936;51.660;5.616;2024-01-07T05:25:09;38.37;34.69;41.06;;
64545;Laerm;50936;51.660;5.616;2024-01-07T05:27:56;38.48;34.31;41.22;;
64545;Laerm;50936;51.660;5.616;2024-01-07T05:30:44;38.54;35.36;41.89;;
64545;Laerm;50936;51.660;5.616;2024-01-07T05:33:31;37.32;32.35;40.13;;
64545;Laerm;50936;51.660;5.616;2024-01-07T05:36:19;37.20;30.54;42.16;;
64545;Laerm;50936;51.660;5.616;2024-01-07T05:39:07;37.51;30.89;43.14;;
64545;Laerm;50936;51.660;5.616;2024-01-07T05:41:54;37.57;30.89;41.68;;
64545;Laerm;50936;51.660;5.616;2024-01-07T05:44:42;36.99;32.35;40.53;;
64545;Laerm;50936;51.660;5.616;2024-01-07T05:47:29;36.96;30.89;40.03;;
64545;Laerm;50936;51.660;5.616;2024-01-07T05:50:17;37.11;30.89;41.22;;
64545;Laerm;50936;51.660;5.616;2024-01-07T05:53:06;37.07;30.89;40.53;;
64545;Laerm;50936;51.660;5.616;2024-01-07T05:55:53;37.10;31.68;40.33;;
64545;Laerm;50936;51.660;5.616;2024-01-07T05:58:40;37.42;31.68;41.68;;
64545;Laerm;50936;51.660;5.616;2024-01-07T06:01:27;37.46;29.92;42.22;;
64545;Laerm;50936;51.660;5.616;2024-01-07T06:04:14;39.81;31.68;52.47;;
64545;Laerm;50936;51.660;5.616;2024-01-07T06:07:02;43.40;36.91;68.56;;
64545;Laerm;50936;51.660;5.616;2024-01-07T06:09:50;50.08;36.91;77.30;;
64545;Laerm;50936;51.660;5.616;2024-01-07T06:12:37;50.90;37.32;76.59;;
64545;Laerm;50936;51.660;5.616;2024-01-07T06:15:24;42.96;33.44;68.49;;
64545;Laerm;50936;51.660;5.616;2024-01-07T06:18:11;47.91;35.66;71.77;;
64545;Laerm;50936;51.660;5.616;2024-01-07T06:20:59;49.00;35.36;73.94;;
64545;Laerm;50936;51.660;5.616;2024-01-07T06:23:46;41.04;35.36;58.18;;
64545;Laerm;50936;51.660;5.616;2024-01-07T06:26:34;50.46;36.20;66.26;;
64545;Laerm;50936;51.660;5.616;2024-01-07T06:29:21;47.37;35.04;73.24;;
64545;Laerm;50936;51.660;5.616;2024-01-07T06:32:08;44.55;35.04;66.72;;
64545;Laerm;50936;51.660;5.616;2024-01-07T06:34:56;44.52;35.04;65.95;;
64545;Laerm;50936;51.660;5.616;2024-01-07T06:37:44;47.72;35.66;67.80;;
64545;Laerm;50936;51.660;5.616;2024-01-07T06:40:32;47.52;39.21;62.98;;
64545;Laerm;50936;51.660;5.616;2024-01-07T06:43:19;47.76;38.67;66.14;;
64545;Laerm;50936;51.660;5.616;2024-01-07T06:46:06;50.80;37.52;67.17;;
64545;Laerm;50936;51.660;5.616;2024-01-07T06:48:54;50.04;38.05;66.85;;
64545;Laerm;50936;51.660;5.616;2024-01-07T06:51:41;50.35;38.81;68.14;;
64545;Laerm;50936;51.660;5.616;2024-01-07T06:54:28;49.43;37.70;67.65;;
64545;Laerm;50936;51.660;5.616;2024-01-07T06:57:16;48.70;35.04;68.64;;
64545;Laerm;50936;51.660;5.616;2024-01-07T07:00:04;49.15;35.36;68.05;;
64545;Laerm;50936;51.660;5.616;2024-01-07T07:02:52;50.54;35.94;69.57;;
64545;Laerm;50936;51.660;5.616;2024-01-07T07:05:39;50.64;41.46;67.63;;
64545;Laerm;50936;51.660;5.616;2024-01-07T07:08:26;54.25;39.92;79.20;;
64545;Laerm;50936;51.660;5.616;2024-01-07T07:11:13;52.52;36.20;70.57;;
64545;Laerm;50936;51.660;5.616;2024-01-07T07:14:00;53.07;40.23;77.40;;
64545;Laerm;50936;51.660;5.616;2024-01-07T07:16:48;47.39;40.23;69.12;;
64545;Laerm;50936;51.660;5.616;2024-01-07T07:19:35;49.84;42.29;68.01;;
64545;Laerm;50936;51.660;5.616;2024-01-07T07:22:22;50.12;37.70;66.65;;
64545;Laerm;50936;51.660;5.616;2024-01-07T07:25:10;52.83;40.80;68.18;;
64545;Laerm;50936;51.660;5.616;2024-01-07T07:27:57;46.30;36.20;56.57;;
64545;Laerm;50936;51.660;5.616;2024-01-07T07:30:44;49.38;37.12;78.17;;
64545;Laerm;50936;51.660;5.616;2024-01-07T07:33:34;50.64;38.67;80.60;;
64545;Laerm;50936;51.660;5.616;2024-01-07T07:36:21;46.58;39.70;64.92;;
64545;Laerm;50936;51.660;5.616;2024-01-07T07:39:08;46.09;37.70;57.73;;
64545;Laerm;50936;51.660;5.616;2024-01-07T07:41:56;46.12;39.70;63.22;;
64545;Laerm;50936;51.660;5.616;2024-01-07T07:44:45;45.89;40.98;55.14;;
64545;Laerm;50936;51.660;5.616;2024-01-07T07:47:33;59.52;41.22;85.58;;
64545;Laerm;50936;51.660;5.616;2024-01-07T07:50:20;72.85;39.70;104.43;;
64545;Laerm;50936;51.660;5.616;2024-01-07T07:53:08;60.75;42.24;85.30;;
64545;Laerm;50936;51.660;5.616;2024-01-07T07:55:56;47.40;42.16;54.43;;
64545;Laerm;50936;51.660;5.616;2024-01-07T07:58:43;50.56;33.90;71.02;;
64545;Laerm;50936;51.660;5.616;2024-01-07T08:01:30;48.56;36.69;59.47;;
64545;Laerm;50936;51.660;5.616;2024-01-07T08:04:18;53.18;37.52;69.84;;
64545;Laerm;50936;51.660;5.616;2024-01-07T08:07:05;58.50;42.16;72.93;;
64545;Laerm;50936;51.660;5.616;2024-01-07T08:09:53;51.80;43.29;74.23;;
64545;Laerm;50936;51.660;5.616;2024-01-07T08:12:40;52.11;42.76;69.82;;
64545;Laerm;50936;51.660;5.616;2024-01-07T08:15:28;48.63;40.43;60.56;;
64545;Laerm;50936;51.660;5.616;2024-01-07T08:18:15;53.48;40.23;81.53;;
64545;Laerm;50936;51.660;5.616;2024-01-07T08:21:02;53.70;42.53;78.70;;
64545;Laerm;50936;51.660;5.616;2024-01-07T08:23:50;50.04;41.30;65.71;;
64545;Laerm;50936;51.660;5.616;2024-01-07T08:26:38;55.02;42.03;78.44;;
64545;Laerm;50936;51.660;5.616;2024-01-07T08:29:25;55.83;40.80;75.81;;
64545;Laerm;50936;51.660;5.616;2024-01-07T08:32:12;57.67;38.21;91.43;;
64545;Laerm;50936;51.660;5.616;2024-01-07T08:34:59;51.63;34.69;75.69;;
64545;Laerm;50936;51.660;5.616;2024-01-07T08:37:47;38.55;32.93;45.04;;
64545;Laerm;50936;51.660;5.616;2024-01-07T08:40:34;38.62;29.92;42.76;;
64545;Laerm;50936;51.660;5.616;2024-01-07T08:43:21;38.80;33.44;42.65;;
64545;Laerm;50936;51.660;5.616;2024-01-07T08:46:08;38.31;31.68;42.22;;
64545;Laerm;50936;51.660;5.616;2024-01-07T08:48:56;39.23;34.69;45.23;;
64545;Laerm;50936;51.660;5.616;2024-01-07T08:51:43;39.80;35.04;45.33;;
64545;Laerm;50936;51.660;5.616;2024-01-07T08:54:30;39.35;33.55;44.35;;
64545;Laerm;50936;51.660;5.616;2024-01-07T08:57:17;39.23;35.36;42.41;;
64545;Laerm;50936;51.660;5.616;2024-01-07T09:00:07;39.51;34.31;43.72;;
64545;Laerm;50936;51.660;5.616;2024-01-07T09:02:57;39.80;34.31;43.68;;
64545;Laerm;50936;51.660;5.616;2024-01-07T09:05:44;39.40;35.04;44.43;;
64545;Laerm;50936;51.660;5.616;2024-01-07T09:08:32;39.60;35.04;44.23;;
64545;Laerm;50936;51.660;5.616;2024-01-07T09:11:19;39.63;34.69;42.76;;
64545;Laerm;50936;51.660;5.616;2024-01-07T09:14:07;39.76;35.66;44.73;;
64545;Laerm;50936;51.660;5.616;2024-01-07T09:16:55;40.09;35.66;44.42;;
64545;Laerm;50936;51.660;5.616;2024-01-07T09:19:42;40.05;35.94;43.58;;
64545;Laerm;50936;51.660;5.616;2024-01-07T09:22:30;39.72;35.36;43.39;;
64545;Laerm;50936;51.660;5.616;2024-01-07T09:25:17;39.89;35.04;44.03;;
64545;Laerm;50936;51.660;5.616;2024-01-07T09:28:05;39.95;34.31;45.39;;
64545;Laerm;50936;51.660;5.616;2024-01-07T09:30:52;39.02;32.93;52.62;;
64545;Laerm;50936;51.660;5.616;2024-01-07T09:33:39;39.35;34.31;45.72;;
64545;Laerm;50936;51.660;5.616;2024-01-07T09:36:27;39.33;31.68;43.72;;
64545;Laerm;50936;51.660;5.616;2024-01-07T09:39:17;38.99;34.31;43.54;;
64545;Laerm;50936;51.660;5.616;2024-01-07T09:42:04;40.11;33.90;45.80;;
64545;Laerm;50936;51.660;5.616;2024-01-07T09:44:52;39.31;34.31;43.72;;
64545;Laerm;50936;51.660;5.616;2024-01-07T09:47:44;39.16;35.66;43.72;;
64545;Laerm;50936;51.660;5.616;2024-01-07T09:50:33;39.09;34.31;43.49;;
64545;Laerm;50936;51.660;5.616;2024-01-07T09:53:25;39.63;35.36;44.39;;
64545;Laerm;50936;51.660;5.616;2024-01-07T09:56:20;39.34;33.90;43.85;;
64545;Laerm;50936;51.660;5.616;2024-01-07T09:59:11;39.35;35.04;44.52;;
64545;Laerm;50936;51.660;5.616;2024-01-07T10:01:58;39.43;35.36;43.90;;
64545;Laerm;50936;51.660;5.616;2024-01-07T10:04:46;39.36;34.31;43.93;;
64545;Laerm;50936;51.660;5.616;2024-01-07T10:07:35;39.60;33.44;44.43;;
64545;Laerm;50936;51.660;5.616;2024-01-07T10:10:23;39.27;33.90;43.44;;
64545;Laerm;50936;51.660;5.616;2024-01-07T10:13:10;39.45;32.35;44.51;;
64545;Laerm;50936;51.660;5.616;2024-01-07T10:15:57;40.06;35.66;49.63;;
64545;Laerm;50936;51.660;5.616;2024-01-07T10:18:45;39.33;34.69;43.68;;
64545;Laerm;50936;51.660;5.616;2024-01-07T10:21:32;39.66;34.69;43.19;;
64545;Laerm;50936;51.660;5.616;2024-01-07T10:24:19;39.78;35.66;44.23;;
64545;Laerm;50936;51.660;5.616;2024-01-07T10:27:08;40.86;35.66;48.36;;
64545;Laerm;50936;51.660;5.616;2024-01-07T10:29:58;39.61;35.66;43.68;;
64545;Laerm;50936;51.660;5.616;2024-01-07T10:32:45;40.01;36.45;43.29;;
64545;Laerm;50936;51.660;5.616;2024-01-07T10:35:35;40.07;35.94;44.43;;
64545;Laerm;50936;51.660;5.616;2024-01-07T10:38:23;40.25;36.91;44.03;;
64545;Laerm;50936;51.660;5.616;2024-01-07T10:41:11;40.24;36.45;43.68;;
64545;Laerm;50936;51.660;5.616;2024-01-07T10:43:59;39.96;35.86;44.35;;
64545;Laerm;50936;51.660;5.616;2024-01-07T10:46:47;40.02;35.36;43.58;;
64545;Laerm;50936;51.660;5.616;2024-01-07T10:49:36;40.10;36.69;44.54;;
64545;Laerm;50936;51.660;5.616;2024-01-07T10:52:27;40.64;35.94;44.83;;
64545;Laerm;50936;51.660;5.616;2024-01-07T10:55:17;40.76;36.10;44.35;;
64545;Laerm;50936;51.660;5.616;2024-01-07T10:58:05;41.36;36.45;53.37;;
64545;Laerm;50936;51.660;5.616;2024-01-07T11:00:54;40.50;36.20;45.99;;
64545;Laerm;50936;51.660;5.616;2024-01-07T11:04:04;39.61;35.36;43.58;;
64545;Laerm;50936;51.660;5.616;2024-01-07T11:07:22;39.35;34.69;44.73;;
64545;Laerm;50936;51.660;5.616;2024-01-07T11:10:26;41.06;35.94;48.13;;
64545;Laerm;50936;51.660;5.616;2024-01-07T11:13:36;41.54;37.17;46.07;;
64545;Laerm;50936;51.660;5.616;2024-01-07T11:16:42;41.20;36.91;50.87;;
64545;Laerm;50936;51.660;5.616;2024-01-07T11:19:30;40.92;36.69;43.72;;
64545;Laerm;50936;51.660;5.616;2024-01-07T11:22:25;40.93;36.69;44.31;;
64545;Laerm;50936;51.660;5.616;2024-01-07T11:25:32;41.10;36.45;45.14;;
64545;Laerm;50936;51.660;5.616;2024-01-07T11:28:53;41.14;36.91;45.66;;
64545;Laerm;50936;51.660;5.616;2024-01-07T11:34:42;40.48;36.20;45.83;;
64545;Laerm;50936;51.660;5.616;2024-01-07T11:37:39;40.42;36.69;44.51;;
64545;Laerm;50936;51.660;5.616;2024-01-07T11:40:26;40.13;35.04;44.35;;
64545;Laerm;50936;51.660;5.616;2024-01-07T11:43:14;40.43;33.90;44.86;;
64545;Laerm;50936;51.660;5.616;2024-01-07T11:46:01;40.62;36.20;45.01;;
64545;Laerm;50936;51.660;5.616;2024-01-07T11:48:53;40.22;36.45;44.43;;
64545;Laerm;50936;51.660;5.616;2024-01-07T11:51:40;54.96;36.20;80.53;;
64545;Laerm;50936;51.660;5.616;2024-01-07T11:54:28;56.61;38.21;78.00;;
64545;Laerm;50936;51.660;5.616;2024-01-07T11:57:16;54.41;37.70;76.13;;
64545;Laerm;50936;51.660;5.616;2024-01-07T12:00:04;53.75;37.52;71.13;;
64545;Laerm;50936;51.660;5.616;2024-01-07T12:03:01;55.59;38.21;75.38;;
64545;Laerm;50936;51.660;5.616;2024-01-07T12:05:48;56.90;41.22;71.57;;
64545;Laerm;50936;51.660;5.616;2024-01-07T12:08:36;59.61;39.08;86.39;;
64545;Laerm;50936;51.660;5.616;2024-01-07T12:11:23;56.21;40.62;75.30;;
64545;Laerm;50936;51.660;5.616;2024-01-07T12:14:11;55.14;39.58;72.94;;
64545;Laerm;50936;51.660;5.616;2024-01-07T12:16:59;65.85;39.81;86.15;;
64545;Laerm;50936;51.660;5.616;2024-01-07T12:19:46;56.85;40.43;78.23;;
64545;Laerm;50936;51.660;5.616;2024-01-07T12:22:40;59.62;40.33;86.21;;
64545;Laerm;50936;51.660;5.616;2024-01-07T12:25:27;59.53;40.23;82.01;;
64545;Laerm;50936;51.660;5.616;2024-01-07T12:28:17;65.16;37.88;95.74;;
64545;Laerm;50936;51.660;5.616;2024-01-07T12:31:09;58.77;41.22;87.51;;
64545;Laerm;50936;51.660;5.616;2024-01-07T12:33:56;55.76;39.21;76.05;;
64545;Laerm;50936;51.660;5.616;2024-01-07T12:36:44;55.69;38.81;74.54;;
64545;Laerm;50936;51.660;5.616;2024-01-07T12:39:33;54.61;37.32;71.39;;
64545;Laerm;50936;51.660;5.616;2024-01-07T12:42:20;54.80;39.46;73.84;;
64545;Laerm;50936;51.660;5.616;2024-01-07T12:45:09;58.08;39.70;81.00;;
64545;Laerm;50936;51.660;5.616;2024-01-07T12:48:01;60.69;39.58;84.18;;
64545;Laerm;50936;51.660;5.616;2024-01-07T12:50:50;58.29;40.23;84.79;;
64545;Laerm;50936;51.660;5.616;2024-01-07T12:53:37;51.15;39.58;66.47;;
64545;Laerm;50936;51.660;5.616;2024-01-07T12:56:24;49.61;38.67;67.09;;
64545;Laerm;50936;51.660;5.616;2024-01-07T12:59:12;49.33;38.05;65.00;;
64545;Laerm;50936;51.660;5.616;2024-01-07T13:01:59;48.70;38.37;62.71;;
64545;Laerm;50936;51.660;5.616;2024-01-07T13:04:47;53.84;39.92;78.25;;
64545;Laerm;50936;51.660;5.616;2024-01-07T13:07:35;58.54;39.08;81.20;;
64545;Laerm;50936;51.660;5.616;2024-01-07T13:10:22;67.84;39.92;86.61;;
64545;Laerm;50936;51.660;5.616;2024-01-07T13:13:09;64.51;40.80;79.93;;
64545;Laerm;50936;51.660;5.616;2024-01-07T13:16:02;63.91;39.58;78.08;;
64545;Laerm;50936;51.660;5.616;2024-01-07T13:18:49;63.03;37.70;76.34;;
64545;Laerm;50936;51.660;5.616;2024-01-07T13:21:38;64.14;39.21;76.83;;
64545;Laerm;50936;51.660;5.616;2024-01-07T13:24:28;62.83;39.46;76.66;;
64545;Laerm;50936;51.660;5.616;2024-01-07T13:27:16;63.83;39.08;77.87;;
64545;Laerm;50936;51.660;5.616;2024-01-07T13:30:06;61.70;37.70;74.37;;
64545;Laerm;50936;51.660;5.616;2024-01-07T13:32:54;63.32;38.81;82.93;;
64545;Laerm;50936;51.660;5.616;2024-01-07T13:35:45;62.48;40.53;79.34;;
64545;Laerm;50936;51.660;5.616;2024-01-07T13:38:32;63.31;38.95;75.32;;
64545;Laerm;50936;51.660;5.616;2024-01-07T13:41:19;63.67;38.21;78.51;;
64545;Laerm;50936;51.660;5.616;2024-01-07T13:44:06;62.32;38.21;77.31;;
64545;Laerm;50936;51.660;5.616;2024-01-07T13:46:54;62.46;39.58;74.91;;
64545;Laerm;50936;51.660;5.616;2024-01-07T13:49:42;65.65;39.46;77.86;;
64545;Laerm;50936;51.660;5.616;2024-01-07T13:52:29;63.41;38.05;78.32;;
64545;Laerm;50936;51.660;5.616;2024-01-07T13:55:17;63.56;40.80;76.52;;
64545;Laerm;50936;51.660;5.616;2024-01-07T13:58:04;64.49;38.81;77.39;;
64545;Laerm;50936;51.660;5.616;2024-01-07T14:00:51;63.10;38.21;78.91;;
64545;Laerm;50936;51.660;5.616;2024-01-07T14:03:39;64.18;38.95;78.56;;
64545;Laerm;50936;51.660;5.616;2024-01-07T14:06:27;64.64;39.34;77.72;;
64545;Laerm;50936;51.660;5.616;2024-01-07T14:09:14;62.70;38.21;76.14;;
64545;Laerm;50936;51.660;5.616;2024-01-07T14:12:01;61.24;38.05;74.09;;
64545;Laerm;50936;51.660;5.616;2024-01-07T14:14:49;63.67;37.70;82.04;;
64545;Laerm;50936;51.660;5.616;2024-01-07T14:17:37;63.26;36.98;78.65;;
64545;Laerm;50936;51.660;5.616;2024-01-07T14:20:24;62.35;37.32;77.08;;
64545;Laerm;50936;51.660;5.616;2024-01-07T14:23:12;64.46;39.81;77.48;;
64545;Laerm;50936;51.660;5.616;2024-01-07T14:26:00;61.90;38.95;77.70;;
64545;Laerm;50936;51.660;5.616;2024-01-07T14:28:47;62.58;39.46;78.88;;
64545;Laerm;50936;51.660;5.616;2024-01-07T14:31:46;62.71;38.05;75.70;;
64545;Laerm;50936;51.660;5.616;2024-01-07T14:34:38;65.05;38.05;80.02;;
64545;Laerm;50936;51.660;5.616;2024-01-07T14:37:29;62.75;38.95;77.80;;
64545;Laerm;50936;51.660;5.616;2024-01-07T14:40:16;63.12;39.08;86.18;;
64545;Laerm;50936;51.660;5.616;2024-01-07T14:43:05;63.21;38.37;75.64;;
64545;Laerm;50936;51.660;5.616;2024-01-07T14:45:52;61.39;38.95;74.80;;
64545;Laerm;50936;51.660;5.616;2024-01-07T14:48:40;64.87;37.52;78.05;;
64545;Laerm;50936;51.660;5.616;2024-01-07T14:51:27;62.96;37.52;79.04;;
64545;Laerm;50936;51.660;5.616;2024-01-07T14:54:15;64.89;37.88;81.51;;
64545;Laerm;50936;51.660;5.616;2024-01-07T14:57:02;62.17;39.08;75.93;;
64545;Laerm;50936;51.660;5.616;2024-01-07T14:59:50;61.50;38.37;74.10;;
64545;Laerm;50936;51.660;5.616;2024-01-07T15:02:39;62.73;39.21;74.31;;
64545;Laerm;50936;51.660;5.616;2024-01-07T15:05:26;62.25;38.37;73.19;;
64545;Laerm;50936;51.660;5.616;2024-01-07T15:08:13;63.61;39.92;77.45;;
64545;Laerm;50936;51.660;5.616;2024-01-07T15:11:01;62.16;38.81;75.64;;
64545;Laerm;50936;51.660;5.616;2024-01-07T15:13:48;63.95;39.34;80.92;;
64545;Laerm;50936;51.660;5.616;2024-01-07T15:16:36;62.23;38.47;76.58;;
64545;Laerm;50936;51.660;5.616;2024-01-07T15:19:23;63.86;37.52;77.54;;
64545;Laerm;50936;51.660;5.616;2024-01-07T15:22:11;65.15;38.81;86.52;;
64545;Laerm;50936;51.660;5.616;2024-01-07T15:25:01;65.18;40.43;77.22;;
64545;Laerm;50936;51.660;5.616;2024-01-07T15:27:49;64.25;38.05;77.12;;
64545;Laerm;50936;51.660;5.616;2024-01-07T15:30:36;64.81;37.88;79.59;;
64545;Laerm;50936;51.660;5.616;2024-01-07T15:33:26;63.72;36.91;78.50;;
64545;Laerm;50936;51.660;5.616;2024-01-07T15:36:13;64.66;36.91;80.77;;
64545;Laerm;50936;51.660;5.616;2024-01-07T15:39:01;63.75;37.52;81.52;;
64545;Laerm;50936;51.660;5.616;2024-01-07T15:41:49;66.43;38.21;80.68;;
64545;Laerm;50936;51.660;5.616;2024-01-07T15:44:37;61.80;38.52;76.93;;